sensor_id;sensor_type;location;lat;lon;timestamp;pressure;altitude;pressure_sealevel;temperature;humidity
53116;BME280;39010;48.088;7.954;2022-07-29T00:01:00;98426.88;;;18.13;97.38
53116;BME280;39010;48.088;7.954;2022-07-29T00:03:27;98426.53;;;18.09;97.55
53116;BME280;39010;48.088;7.954;2022-07-29T00:05:53;98428.63;;;18.19;96.71
53116;BME280;39010;48.088;7.954;2022-07-29T00:08:20;98434.91;;;18.07;97.81
53116;BME280;39010;48.088;7.954;2022-07-29T00:10:47;98430.41;;;18.01;97.64
53116;BME280;39010;48.088;7.954;2022-07-29T00:13:14;98422.50;;;18.00;98.02
53116;BME280;39010;48.088;7.954;2022-07-29T00:15:40;98431.69;;;17.99;98.11
53116;BME280;39010;48.088;7.954;2022-07-29T00:18:07;98435.63;;;18.03;97.30
53116;BME280;39010;48.088;7.954;2022-07-29T00:20:34;98438.09;;;18.04;97.35
53116;BME280;39010;48.088;7.954;2022-07-29T00:23:00;98437.13;;;17.99;97.56
53116;BME280;39010;48.088;7.954;2022-07-29T00:25:27;98442.56;;;17.99;97.34
53116;BME280;39010;48.088;7.954;2022-07-29T00:27:53;98429.66;;;17.94;97.60
53116;BME280;39010;48.088;7.954;2022-07-29T00:30:20;98430.50;;;17.94;97.60
53116;BME280;39010;48.088;7.954;2022-07-29T00:32:46;98433.91;;;17.90;98.09
53116;BME280;39010;48.088;7.954;2022-07-29T00:35:13;98430.97;;;17.91;98.22
53116;BME280;39010;48.088;7.954;2022-07-29T00:37:58;98436.41;;;17.91;98.34
53116;BME280;39010;48.088;7.954;2022-07-29T00:40:27;98434.03;;;17.83;98.93
53116;BME280;39010;48.088;7.954;2022-07-29T00:42:54;98435.78;;;17.77;99.29
53116;BME280;39010;48.088;7.954;2022-07-29T00:45:20;98430.03;;;17.74;100.00
53116;BME280;39010;48.088;7.954;2022-07-29T00:47:48;98431.28;;;17.71;100.00
53116;BME280;39010;48.088;7.954;2022-07-29T00:50:15;98430.94;;;17.67;100.00
53116;BME280;39010;48.088;7.954;2022-07-29T00:52:42;98421.16;;;17.66;100.00
53116;BME280;39010;48.088;7.954;2022-07-29T00:55:12;98414.53;;;17.62;100.00
53116;BME280;39010;48.088;7.954;2022-07-29T00:57:41;98421.50;;;17.58;100.00
53116;BME280;39010;48.088;7.954;2022-07-29T01:00:11;98423.16;;;17.59;100.00
53116;BME280;39010;48.088;7.954;2022-07-29T01:02:38;98420.56;;;17.52;100.00
53116;BME280;39010;48.088;7.954;2022-07-29T01:05:05;98429.97;;;17.50;100.00
53116;BME280;39010;48.088;7.954;2022-07-29T01:07:34;98428.44;;;17.42;100.00
53116;BME280;39010;48.088;7.954;2022-07-29T01:10:04;98431.47;;;17.34;100.00
53116;BME280;39010;48.088;7.954;2022-07-29T01:12:34;98430.63;;;17.33;100.00
53116;BME280;39010;48.088;7.954;2022-07-29T01:15:03;98436.53;;;17.30;100.00
53116;BME280;39010;48.088;7.954;2022-07-29T01:34:07;98410.28;;;17.12;100.00
53116;BME280;39010;48.088;7.954;2022-07-29T01:36:47;98420.16;;;17.06;100.00
53116;BME280;39010;48.088;7.954;2022-07-29T01:39:30;98415.19;;;17.03;100.00
53116;BME280;39010;48.088;7.954;2022-07-29T01:42:09;98414.38;;;17.03;100.00
53116;BME280;39010;48.088;7.954;2022-07-29T01:45:07;98415.66;;;17.00;100.00
53116;BME280;39010;48.088;7.954;2022-07-29T01:48:37;98409.88;;;16.97;100.00
53116;BME280;39010;48.088;7.954;2022-07-29T01:50:41;98419.50;;;16.92;100.00
53116;BME280;39010;48.088;7.954;2022-07-29T01:53:10;98409.09;;;16.89;100.00
53116;BME280;39010;48.088;7.954;2022-07-29T01:55:40;98415.34;;;16.90;100.00
53116;BME280;39010;48.088;7.954;2022-07-29T01:58:09;98418.66;;;16.92;100.00
53116;BME280;39010;48.088;7.954;2022-07-29T02:00:37;98423.25;;;16.91;100.00
53116;BME280;39010;48.088;7.954;2022-07-29T02:03:11;98420.31;;;16.93;100.00
53116;BME280;39010;48.088;7.954;2022-07-29T02:05:41;98429.94;;;16.89;100.00
53116;BME280;39010;48.088;7.954;2022-07-29T02:08:09;98421.97;;;16.94;100.00
53116;BME280;39010;48.088;7.954;2022-07-29T02:24:24;98427.34;;;16.82;100.00
53116;BME280;39010;48.088;7.954;2022-07-29T02:26:53;98425.91;;;16.79;100.00
53116;BME280;39010;48.088;7.954;2022-07-29T02:29:23;98431.56;;;16.78;100.00
53116;BME280;39010;48.088;7.954;2022-07-29T02:31:50;98432.97;;;16.81;100.00
53116;BME280;39010;48.088;7.954;2022-07-29T02:34:19;98432.75;;;16.82;100.00
53116;BME280;39010;48.088;7.954;2022-07-29T02:36:48;98434.03;;;16.79;100.00
53116;BME280;39010;48.088;7.954;2022-07-29T02:39:16;98436.28;;;16.83;100.00
53116;BME280;39010;48.088;7.954;2022-07-29T02:41:47;98420.72;;;16.78;100.00
53116;BME280;39010;48.088;7.954;2022-07-29T02:44:16;98429.56;;;16.73;100.00
53116;BME280;39010;48.088;7.954;2022-07-29T02:47:39;98422.22;;;16.74;100.00
53116;BME280;39010;48.088;7.954;2022-07-29T02:49:42;98434.13;;;16.73;100.00
53116;BME280;39010;48.088;7.954;2022-07-29T02:52:19;98433.78;;;16.69;100.00
53116;BME280;39010;48.088;7.954;2022-07-29T02:54:54;98438.59;;;16.67;100.00
53116;BME280;39010;48.088;7.954;2022-07-29T02:57:34;98437.09;;;16.71;100.00
53116;BME280;39010;48.088;7.954;2022-07-29T03:00:21;98439.03;;;16.64;100.00
53116;BME280;39010;48.088;7.954;2022-07-29T03:02:52;98439.50;;;16.61;100.00
53116;BME280;39010;48.088;7.954;2022-07-29T03:05:20;98438.91;;;16.59;100.00
53116;BME280;39010;48.088;7.954;2022-07-29T03:08:04;98445.81;;;16.55;100.00
53116;BME280;39010;48.088;7.954;2022-07-29T03:10:32;98440.84;;;16.52;100.00
53116;BME280;39010;48.088;7.954;2022-07-29T03:13:00;98439.34;;;16.56;100.00
53116;BME280;39010;48.088;7.954;2022-07-29T03:15:26;98437.53;;;16.49;100.00
53116;BME280;39010;48.088;7.954;2022-07-29T03:17:53;98439.66;;;16.47;100.00
53116;BME280;39010;48.088;7.954;2022-07-29T03:20:21;98435.50;;;16.45;100.00
53116;BME280;39010;48.088;7.954;2022-07-29T03:22:48;98429.47;;;16.43;100.00
53116;BME280;39010;48.088;7.954;2022-07-29T03:25:16;98430.97;;;16.39;100.00
53116;BME280;39010;48.088;7.954;2022-07-29T03:27:44;98429.31;;;16.38;100.00
53116;BME280;39010;48.088;7.954;2022-07-29T03:30:11;98422.03;;;16.38;100.00
53116;BME280;39010;48.088;7.954;2022-07-29T03:32:47;98426.44;;;16.32;100.00
53116;BME280;39010;48.088;7.954;2022-07-29T03:35:14;98432.78;;;16.26;100.00
53116;BME280;39010;48.088;7.954;2022-07-29T03:37:43;98432.31;;;16.29;100.00
53116;BME280;39010;48.088;7.954;2022-07-29T03:40:16;98435.09;;;16.23;100.00
53116;BME280;39010;48.088;7.954;2022-07-29T03:42:44;98438.25;;;16.19;100.00
53116;BME280;39010;48.088;7.954;2022-07-29T03:45:15;98435.56;;;16.19;100.00
53116;BME280;39010;48.088;7.954;2022-07-29T03:47:51;98436.81;;;16.17;100.00
53116;BME280;39010;48.088;7.954;2022-07-29T03:50:27;98438.72;;;16.16;100.00
53116;BME280;39010;48.088;7.954;2022-07-29T03:52:56;98435.00;;;16.11;100.00
53116;BME280;39010;48.088;7.954;2022-07-29T03:55:23;98440.06;;;16.07;100.00
53116;BME280;39010;48.088;7.954;2022-07-29T03:57:51;98432.09;;;16.12;100.00
53116;BME280;39010;48.088;7.954;2022-07-29T04:00:18;98445.19;;;16.15;100.00
53116;BME280;39010;48.088;7.954;2022-07-29T04:02:46;98441.88;;;16.13;100.00
53116;BME280;39010;48.088;7.954;2022-07-29T04:05:15;98442.47;;;16.15;100.00
53116;BME280;39010;48.088;7.954;2022-07-29T04:07:46;98441.88;;;16.13;100.00
53116;BME280;39010;48.088;7.954;2022-07-29T04:10:14;98441.88;;;16.13;100.00
53116;BME280;39010;48.088;7.954;2022-07-29T04:12:42;98439.75;;;16.15;100.00
53116;BME280;39010;48.088;7.954;2022-07-29T04:15:10;98439.59;;;16.10;100.00
53116;BME280;39010;48.088;7.954;2022-07-29T04:17:37;98437.72;;;16.11;100.00
53116;BME280;39010;48.088;7.954;2022-07-29T04:20:04;98439.75;;;16.15;100.00
53116;BME280;39010;48.088;7.954;2022-07-29T04:22:31;98445.78;;;16.17;100.00
53116;BME280;39010;48.088;7.954;2022-07-29T04:24:57;98444.28;;;16.22;100.00
53116;BME280;39010;48.088;7.954;2022-07-29T04:27:29;98439.69;;;16.22;100.00
53116;BME280;39010;48.088;7.954;2022-07-29T04:29:55;98447.00;;;16.22;100.00
53116;BME280;39010;48.088;7.954;2022-07-29T04:32:24;98447.81;;;16.22;100.00
53116;BME280;39010;48.088;7.954;2022-07-29T04:34:50;98447.44;;;16.18;100.00
53116;BME280;39010;48.088;7.954;2022-07-29T04:37:17;98454.06;;;16.23;100.00
53116;BME280;39010;48.088;7.954;2022-07-29T04:39:43;98457.38;;;16.25;100.00
53116;BME280;39010;48.088;7.954;2022-07-29T04:42:10;98455.47;;;16.25;100.00
53116;BME280;39010;48.088;7.954;2022-07-29T04:44:36;98450.03;;;16.32;100.00
53116;BME280;39010;48.088;7.954;2022-07-29T04:47:08;98457.91;;;16.33;100.00
53116;BME280;39010;48.088;7.954;2022-07-29T04:49:37;98464.78;;;16.36;100.00
53116;BME280;39010;48.088;7.954;2022-07-29T04:52:05;98467.69;;;16.34;100.00
53116;BME280;39010;48.088;7.954;2022-07-29T04:54:32;98471.44;;;16.33;100.00
53116;BME280;39010;48.088;7.954;2022-07-29T04:56:58;98474.75;;;16.35;100.00
53116;BME280;39010;48.088;7.954;2022-07-29T04:59:25;98476.66;;;16.35;100.00
53116;BME280;39010;48.088;7.954;2022-07-29T05:01:52;98472.22;;;16.41;100.00
53116;BME280;39010;48.088;7.954;2022-07-29T05:04:19;98475.06;;;16.46;100.00
53116;BME280;39010;48.088;7.954;2022-07-29T05:06:46;98483.81;;;16.48;100.00
53116;BME280;39010;48.088;7.954;2022-07-29T05:09:12;98480.28;;;16.47;100.00
53116;BME280;39010;48.088;7.954;2022-07-29T05:11:39;98482.84;;;16.61;100.00
53116;BME280;39010;48.088;7.954;2022-07-29T05:14:05;98487.66;;;16.59;100.00
53116;BME280;39010;48.088;7.954;2022-07-29T05:16:32;98484.06;;;16.65;100.00
53116;BME280;39010;48.088;7.954;2022-07-29T05:18:59;98481.25;;;16.72;100.00
53116;BME280;39010;48.088;7.954;2022-07-29T05:21:26;98480.13;;;16.79;100.00
53116;BME280;39010;48.088;7.954;2022-07-29T05:23:52;98484.03;;;16.84;100.00
53116;BME280;39010;48.088;7.954;2022-07-29T05:26:19;98500.09;;;16.85;100.00
53116;BME280;39010;48.088;7.954;2022-07-29T05:28:45;98494.56;;;16.92;100.00
53116;BME280;39010;48.088;7.954;2022-07-29T05:31:12;98489.75;;;16.94;100.00
53116;BME280;39010;48.088;7.954;2022-07-29T05:33:41;98499.47;;;16.83;100.00
53116;BME280;39010;48.088;7.954;2022-07-29T05:36:08;98506.47;;;16.91;100.00
53116;BME280;39010;48.088;7.954;2022-07-29T05:38:35;98499.53;;;16.95;100.00
53116;BME280;39010;48.088;7.954;2022-07-29T05:41:02;98502.22;;;17.02;99.53
53116;BME280;39010;48.088;7.954;2022-07-29T05:43:28;98491.81;;;17.17;99.33
53116;BME280;39010;48.088;7.954;2022-07-29T05:45:55;98495.31;;;17.18;99.64
53116;BME280;39010;48.088;7.954;2022-07-29T05:48:22;98492.16;;;17.21;99.22
53116;BME280;39010;48.088;7.954;2022-07-29T05:50:49;98505.41;;;17.29;98.60
53116;BME280;39010;48.088;7.954;2022-07-29T05:53:15;98503.34;;;17.43;98.67
53116;BME280;39010;48.088;7.954;2022-07-29T05:55:46;98501.72;;;17.54;98.15
53116;BME280;39010;48.088;7.954;2022-07-29T05:58:13;98508.03;;;17.66;97.69
53116;BME280;39010;48.088;7.954;2022-07-29T06:00:40;98513.59;;;17.72;96.88
53116;BME280;39010;48.088;7.954;2022-07-29T06:03:06;98512.66;;;17.78;96.13
53116;BME280;39010;48.088;7.954;2022-07-29T06:05:33;98514.31;;;17.79;96.27
53116;BME280;39010;48.088;7.954;2022-07-29T06:07:59;98523.78;;;17.88;95.86
53116;BME280;39010;48.088;7.954;2022-07-29T06:10:26;98526.25;;;17.90;95.18
53116;BME280;39010;48.088;7.954;2022-07-29T06:12:53;98526.97;;;17.97;94.38
53116;BME280;39010;48.088;7.954;2022-07-29T06:15:19;98518.75;;;18.04;93.93
53116;BME280;39010;48.088;7.954;2022-07-29T06:17:46;98514.16;;;18.28;92.51
53116;BME280;39010;48.088;7.954;2022-07-29T06:20:27;98518.09;;;18.44;92.22
53116;BME280;39010;48.088;7.954;2022-07-29T06:22:56;98510.03;;;18.61;90.17
53116;BME280;39010;48.088;7.954;2022-07-29T06:25:23;98510.91;;;18.91;88.97
53116;BME280;39010;48.088;7.954;2022-07-29T06:27:49;98521.06;;;19.19;87.91
53116;BME280;39010;48.088;7.954;2022-07-29T06:30:16;98511.19;;;19.30;86.71
53116;BME280;39010;48.088;7.954;2022-07-29T06:32:42;98516.56;;;19.71;85.06
53116;BME280;39010;48.088;7.954;2022-07-29T06:35:09;98518.66;;;19.81;84.57
53116;BME280;39010;48.088;7.954;2022-07-29T06:37:56;98516.22;;;19.96;82.51
53116;BME280;39010;48.088;7.954;2022-07-29T06:40:25;98511.84;;;20.29;80.05
53116;BME280;39010;48.088;7.954;2022-07-29T06:43:11;98518.34;;;20.45;78.48
53116;BME280;39010;48.088;7.954;2022-07-29T06:45:37;98510.84;;;20.92;77.33
53116;BME280;39010;48.088;7.954;2022-07-29T06:48:07;98518.00;;;21.21;75.99
53116;BME280;39010;48.088;7.954;2022-07-29T06:50:34;98523.88;;;21.57;74.68
53116;BME280;39010;48.088;7.954;2022-07-29T06:53:00;98523.00;;;21.78;72.82
53116;BME280;39010;48.088;7.954;2022-07-29T06:55:27;98526.25;;;21.53;72.63
53116;BME280;39010;48.088;7.954;2022-07-29T06:57:54;98527.09;;;21.54;73.04
53116;BME280;39010;48.088;7.954;2022-07-29T07:00:20;98519.34;;;21.68;73.15
53116;BME280;39010;48.088;7.954;2022-07-29T07:02:47;98524.66;;;21.80;72.45
53116;BME280;39010;48.088;7.954;2022-07-29T07:05:14;98530.78;;;21.92;70.48
53116;BME280;39010;48.088;7.954;2022-07-29T07:07:40;98517.47;;;22.39;69.04
53116;BME280;39010;48.088;7.954;2022-07-29T07:10:07;98525.00;;;22.54;68.06
53116;BME280;39010;48.088;7.954;2022-07-29T07:12:34;98533.59;;;22.35;68.46
53116;BME280;39010;48.088;7.954;2022-07-29T07:15:01;98527.56;;;22.33;69.36
53116;BME280;39010;48.088;7.954;2022-07-29T07:17:27;98529.72;;;22.31;69.70
53116;BME280;39010;48.088;7.954;2022-07-29T07:19:54;98533.19;;;22.21;69.38
53116;BME280;39010;48.088;7.954;2022-07-29T07:22:21;98533.19;;;22.21;69.83
53116;BME280;39010;48.088;7.954;2022-07-29T07:24:47;98542.03;;;22.33;69.53
53116;BME280;39010;48.088;7.954;2022-07-29T07:27:14;98548.03;;;22.30;69.05
53116;BME280;39010;48.088;7.954;2022-07-29T07:29:40;98552.00;;;22.12;71.31
53116;BME280;39010;48.088;7.954;2022-07-29T07:32:09;98548.88;;;21.98;72.81
53116;BME280;39010;48.088;7.954;2022-07-29T07:34:36;98549.50;;;22.05;71.00
53116;BME280;39010;48.088;7.954;2022-07-29T07:37:04;98549.44;;;22.33;69.35
53116;BME280;39010;48.088;7.954;2022-07-29T07:39:31;98552.44;;;22.36;68.56
53116;BME280;39010;48.088;7.954;2022-07-29T07:41:58;98559.16;;;22.51;68.25
53116;BME280;39010;48.088;7.954;2022-07-29T07:44:25;98561.47;;;21.99;66.71
53116;BME280;39010;48.088;7.954;2022-07-29T07:46:51;98563.06;;;21.95;66.87
53116;BME280;39010;48.088;7.954;2022-07-29T07:49:20;98561.34;;;22.16;65.97
53116;BME280;39010;48.088;7.954;2022-07-29T07:51:47;98567.31;;;22.13;66.94
53116;BME280;39010;48.088;7.954;2022-07-29T07:54:16;98571.44;;;22.16;67.62
53116;BME280;39010;48.088;7.954;2022-07-29T07:56:46;98570.94;;;22.24;64.02
53116;BME280;39010;48.088;7.954;2022-07-29T07:59:18;98569.00;;;22.19;63.61
53116;BME280;39010;48.088;7.954;2022-07-29T08:01:44;98568.78;;;22.26;63.81
53116;BME280;39010;48.088;7.954;2022-07-29T08:04:21;98571.56;;;22.31;62.71
53116;BME280;39010;48.088;7.954;2022-07-29T08:06:55;98567.03;;;22.15;62.73
53116;BME280;39010;48.088;7.954;2022-07-29T08:09:22;98570.38;;;22.22;63.12
53116;BME280;39010;48.088;7.954;2022-07-29T08:11:57;98569.88;;;22.25;62.97
53116;BME280;39010;48.088;7.954;2022-07-29T08:14:24;98571.47;;;22.21;62.74
53116;BME280;39010;48.088;7.954;2022-07-29T08:16:51;98563.72;;;22.40;62.11
53116;BME280;39010;48.088;7.954;2022-07-29T08:19:18;98565.88;;;22.38;62.93
53116;BME280;39010;48.088;7.954;2022-07-29T08:21:45;98565.75;;;22.55;62.54
53116;BME280;39010;48.088;7.954;2022-07-29T08:24:11;98564.19;;;22.64;61.83
53116;BME280;39010;48.088;7.954;2022-07-29T08:26:56;98562.00;;;22.66;60.69
53116;BME280;39010;48.088;7.954;2022-07-29T08:29:23;98565.88;;;22.76;60.58
53116;BME280;39010;48.088;7.954;2022-07-29T08:31:49;98562.06;;;22.77;59.96
53116;BME280;39010;48.088;7.954;2022-07-29T08:34:16;98562.63;;;22.79;59.73
53116;BME280;39010;48.088;7.954;2022-07-29T08:36:43;98566.72;;;22.76;59.62
53116;BME280;39010;48.088;7.954;2022-07-29T08:39:15;98562.66;;;22.84;59.69
53116;BME280;39010;48.088;7.954;2022-07-29T08:41:41;98570.94;;;23.00;60.28
53116;BME280;39010;48.088;7.954;2022-07-29T08:44:23;98564.25;;;23.23;60.36
53116;BME280;39010;48.088;7.954;2022-07-29T08:46:56;98564.59;;;23.42;59.19
53116;BME280;39010;48.088;7.954;2022-07-29T08:49:23;98559.97;;;23.53;57.94
53116;BME280;39010;48.088;7.954;2022-07-29T08:51:51;98563.56;;;23.64;57.95
53116;BME280;39010;48.088;7.954;2022-07-29T08:54:18;98559.78;;;23.80;57.58
53116;BME280;39010;48.088;7.954;2022-07-29T08:56:48;98560.56;;;23.65;56.68
53116;BME280;39010;48.088;7.954;2022-07-29T08:59:19;98557.81;;;23.71;57.26
53116;BME280;39010;48.088;7.954;2022-07-29T09:01:51;98559.75;;;23.75;56.51
53116;BME280;39010;48.088;7.954;2022-07-29T09:04:20;98555.91;;;23.66;56.50
53116;BME280;39010;48.088;7.954;2022-07-29T09:06:51;98567.34;;;23.47;57.86
53116;BME280;39010;48.088;7.954;2022-07-29T09:09:18;98555.38;;;23.69;59.23
53116;BME280;39010;48.088;7.954;2022-07-29T09:11:44;98557.31;;;23.84;58.05
53116;BME280;39010;48.088;7.954;2022-07-29T09:14:12;98566.88;;;23.92;56.40
53116;BME280;39010;48.088;7.954;2022-07-29T09:16:51;98558.66;;;23.71;55.77
53116;BME280;39010;48.088;7.954;2022-07-29T09:19:24;98555.34;;;23.59;56.57
53116;BME280;39010;48.088;7.954;2022-07-29T09:21:52;98553.09;;;23.45;57.10
53116;BME280;39010;48.088;7.954;2022-07-29T09:24:48;98563.00;;;23.51;57.69
53116;BME280;39010;48.088;7.954;2022-07-29T09:27:24;98553.69;;;23.58;56.94
53116;BME280;39010;48.088;7.954;2022-07-29T09:32:23;98553.66;;;23.42;56.65
53116;BME280;39010;48.088;7.954;2022-07-29T09:34:50;98548.16;;;23.37;56.57
53116;BME280;39010;48.088;7.954;2022-07-29T09:37:28;98551.50;;;23.60;56.83
53116;BME280;39010;48.088;7.954;2022-07-29T09:39:54;98553.41;;;23.54;57.04
53116;BME280;39010;48.088;7.954;2022-07-29T09:42:30;98566.88;;;23.66;57.64
53116;BME280;39010;48.088;7.954;2022-07-29T09:44:58;98556.97;;;23.54;56.78
53116;BME280;39010;48.088;7.954;2022-07-29T09:47:40;98557.78;;;23.60;56.65
53116;BME280;39010;48.088;7.954;2022-07-29T09:50:07;98573.94;;;23.51;57.55
53116;BME280;39010;48.088;7.954;2022-07-29T09:52:44;98561.34;;;23.56;57.38
53116;BME280;39010;48.088;7.954;2022-07-29T09:55:11;98560.25;;;23.57;57.09
53116;BME280;39010;48.088;7.954;2022-07-29T09:57:44;98565.47;;;23.63;57.64
53116;BME280;39010;48.088;7.954;2022-07-29T10:00:18;98566.59;;;23.73;57.05
53116;BME280;39010;48.088;7.954;2022-07-29T10:02:46;98566.34;;;23.79;56.70
53116;BME280;39010;48.088;7.954;2022-07-29T10:05:22;98568.00;;;23.80;56.46
53116;BME280;39010;48.088;7.954;2022-07-29T10:07:54;98564.69;;;23.89;56.43
53116;BME280;39010;48.088;7.954;2022-07-29T10:10:30;98560.88;;;23.85;56.36
53116;BME280;39010;48.088;7.954;2022-07-29T10:13:02;98561.16;;;23.93;56.92
53116;BME280;39010;48.088;7.954;2022-07-29T10:15:37;98559.56;;;24.23;55.84
53116;BME280;39010;48.088;7.954;2022-07-29T10:18:09;98553.22;;;24.33;55.20
53116;BME280;39010;48.088;7.954;2022-07-29T10:20:38;98560.09;;;24.31;54.95
53116;BME280;39010;48.088;7.954;2022-07-29T10:23:04;98556.53;;;24.25;54.64
53116;BME280;39010;48.088;7.954;2022-07-29T10:25:31;98551.88;;;24.20;54.90
53116;BME280;39010;48.088;7.954;2022-07-29T10:27:58;98550.25;;;24.24;55.50
53116;BME280;39010;48.088;7.954;2022-07-29T10:30:25;98551.31;;;24.60;53.98
53116;BME280;39010;48.088;7.954;2022-07-29T10:44:04;98552.91;;;24.81;52.32
53116;BME280;39010;48.088;7.954;2022-07-29T10:46:37;98554.00;;;24.80;51.48
53116;BME280;39010;48.088;7.954;2022-07-29T10:49:15;98551.78;;;24.98;51.96
53116;BME280;39010;48.088;7.954;2022-07-29T10:51:57;98556.47;;;24.87;50.85
53116;BME280;39010;48.088;7.954;2022-07-29T10:57:30;98561.59;;;25.20;50.34
53116;BME280;39010;48.088;7.954;2022-07-29T11:02:45;98558.06;;;25.14;50.26
53116;BME280;39010;48.088;7.954;2022-07-29T11:05:17;98562.47;;;25.05;49.32
53116;BME280;39010;48.088;7.954;2022-07-29T11:10:47;98562.75;;;24.98;50.14
53116;BME280;39010;48.088;7.954;2022-07-29T11:13:51;98561.38;;;25.06;49.71
53116;BME280;39010;48.088;7.954;2022-07-29T11:16:20;98565.09;;;25.41;48.38
53116;BME280;39010;48.088;7.954;2022-07-29T11:21:41;98565.94;;;25.31;46.97
53116;BME280;39010;48.088;7.954;2022-07-29T11:24:26;98562.88;;;25.43;47.08
53116;BME280;39010;48.088;7.954;2022-07-29T11:27:24;98557.94;;;25.40;46.55
53116;BME280;39010;48.088;7.954;2022-07-29T11:29:58;98563.16;;;25.47;46.31
53116;BME280;39010;48.088;7.954;2022-07-29T11:32:37;98569.38;;;25.63;46.82
53116;BME280;39010;48.088;7.954;2022-07-29T11:38:23;98565.06;;;25.51;44.77
53116;BME280;39010;48.088;7.954;2022-07-29T11:41:25;98569.72;;;25.51;45.18
53116;BME280;39010;48.088;7.954;2022-07-29T11:44:12;98569.78;;;25.30;45.34
53116;BME280;39010;48.088;7.954;2022-07-29T11:46:46;98567.88;;;25.30;44.76
53116;BME280;39010;48.088;7.954;2022-07-29T11:49:25;98560.66;;;25.55;44.66
53116;BME280;39010;48.088;7.954;2022-07-29T11:51:59;98562.34;;;25.46;44.25
53116;BME280;39010;48.088;7.954;2022-07-29T11:54:33;98562.31;;;25.51;44.26
53116;BME280;39010;48.088;7.954;2022-07-29T11:57:20;98569.53;;;25.26;43.62
53116;BME280;39010;48.088;7.954;2022-07-29T11:59:47;98567.06;;;25.25;42.63
53116;BME280;39010;48.088;7.954;2022-07-29T12:02:14;98564.59;;;25.28;42.46
53116;BME280;39010;48.088;7.954;2022-07-29T12:05:02;98567.91;;;25.25;41.72
53116;BME280;39010;48.088;7.954;2022-07-29T12:07:38;98565.63;;;25.43;42.30
53116;BME280;39010;48.088;7.954;2022-07-29T12:10:07;98574.13;;;25.52;42.22
53116;BME280;39010;48.088;7.954;2022-07-29T12:12:51;98578.00;;;25.46;43.63
53116;BME280;39010;48.088;7.954;2022-07-29T12:15:19;98574.69;;;25.43;44.35
53116;BME280;39010;48.088;7.954;2022-07-29T12:18:20;98580.72;;;25.51;43.74
53116;BME280;39010;48.088;7.954;2022-07-29T12:20:57;98573.84;;;25.53;44.20
53116;BME280;39010;48.088;7.954;2022-07-29T12:23:24;98578.47;;;25.63;44.58
53116;BME280;39010;48.088;7.954;2022-07-29T12:25:54;98579.53;;;25.67;44.76
53116;BME280;39010;48.088;7.954;2022-07-29T12:28:21;98578.78;;;25.56;44.54
53116;BME280;39010;48.088;7.954;2022-07-29T12:30:53;98580.16;;;25.54;44.09
53116;BME280;39010;48.088;7.954;2022-07-29T12:33:23;98572.75;;;25.44;44.64
53116;BME280;39010;48.088;7.954;2022-07-29T12:35:52;98582.19;;;25.22;45.41
53116;BME280;39010;48.088;7.954;2022-07-29T12:38:40;98576.41;;;25.24;46.09
53116;BME280;39010;48.088;7.954;2022-07-29T12:41:08;98581.94;;;25.13;46.33
53116;BME280;39010;48.088;7.954;2022-07-29T12:43:34;98584.69;;;25.08;46.22
53116;BME280;39010;48.088;7.954;2022-07-29T12:46:12;98584.97;;;25.12;46.80
53116;BME280;39010;48.088;7.954;2022-07-29T12:48:41;98578.34;;;25.18;46.85
53116;BME280;39010;48.088;7.954;2022-07-29T12:51:09;98585.75;;;25.18;47.06
53116;BME280;39010;48.088;7.954;2022-07-29T12:53:38;98582.38;;;25.41;47.38
53116;BME280;39010;48.088;7.954;2022-07-29T12:56:05;98581.03;;;25.39;45.85
53116;BME280;39010;48.088;7.954;2022-07-29T12:58:52;98580.25;;;25.23;46.80
53116;BME280;39010;48.088;7.954;2022-07-29T13:01:19;98590.72;;;25.15;47.98
53116;BME280;39010;48.088;7.954;2022-07-29T13:03:52;98580.31;;;25.07;48.01
53116;BME280;39010;48.088;7.954;2022-07-29T13:06:31;98586.31;;;25.14;48.36
53116;BME280;39010;48.088;7.954;2022-07-29T13:11:48;98577.56;;;25.02;48.27
53116;BME280;39010;48.088;7.954;2022-07-29T13:14:38;98577.84;;;25.06;48.58
53116;BME280;39010;48.088;7.954;2022-07-29T13:17:14;98575.16;;;24.90;48.46
53116;BME280;39010;48.088;7.954;2022-07-29T13:19:49;98572.97;;;24.87;48.35
53116;BME280;39010;48.088;7.954;2022-07-29T13:22:20;98567.97;;;24.99;48.38
53116;BME280;39010;48.088;7.954;2022-07-29T13:24:58;98567.97;;;25.05;48.89
53116;BME280;39010;48.088;7.954;2022-07-29T13:27:30;98575.91;;;25.06;48.29
53116;BME280;39010;48.088;7.954;2022-07-29T13:29:59;98574.75;;;25.23;48.28
53116;BME280;39010;48.088;7.954;2022-07-29T13:32:29;98574.00;;;25.12;47.94
53116;BME280;39010;48.088;7.954;2022-07-29T13:34:56;98573.94;;;25.22;47.45
53116;BME280;39010;48.088;7.954;2022-07-29T13:37:23;98568.19;;;25.13;47.68
53116;BME280;39010;48.088;7.954;2022-07-29T13:39:50;98571.72;;;25.29;48.10
53116;BME280;39010;48.088;7.954;2022-07-29T13:42:19;98564.53;;;25.44;48.16
53116;BME280;39010;48.088;7.954;2022-07-29T13:44:46;98566.19;;;25.40;47.21
53116;BME280;39010;48.088;7.954;2022-07-29T13:47:15;98564.53;;;25.44;47.39
53116;BME280;39010;48.088;7.954;2022-07-29T13:49:42;98558.72;;;25.56;47.05
53116;BME280;39010;48.088;7.954;2022-07-29T13:52:09;98560.03;;;25.64;47.11
53116;BME280;39010;48.088;7.954;2022-07-29T13:54:36;98567.50;;;25.53;46.28
53116;BME280;39010;48.088;7.954;2022-07-29T13:57:08;98556.78;;;25.56;46.54
53116;BME280;39010;48.088;7.954;2022-07-29T13:59:36;98548.09;;;25.34;46.40
53116;BME280;39010;48.088;7.954;2022-07-29T14:02:03;98549.41;;;25.41;46.54
53116;BME280;39010;48.088;7.954;2022-07-29T14:04:29;98548.09;;;25.34;46.60
53116;BME280;39010;48.088;7.954;2022-07-29T14:07:21;98554.69;;;25.33;45.21
53116;BME280;39010;48.088;7.954;2022-07-29T14:20:31;98575.16;;;24.69;45.89
53116;BME280;39010;48.088;7.954;2022-07-29T14:22:57;98568.03;;;24.74;46.72
53116;BME280;39010;48.088;7.954;2022-07-29T14:25:24;98566.06;;;24.90;46.46
53116;BME280;39010;48.088;7.954;2022-07-29T14:27:50;98571.34;;;24.76;46.44